Time,TemperatureF,DewpointF,PressureIn,WindDirection,WindDirectionDegrees,WindSpeedMPH,WindSpeedGustMPH,Humidity,HourlyPrecipIn,Conditions,Clouds,dailyrainin,SoftwareType,DateUTC
2013-12-01 00:25:00,38.6,25.9,30.25,South,187,1.0,5.0,60,0.00,CLR,,0.00,WeatherDisplay:10.37,2013-12-01 05:25:00,
2013-12-01 00:40:00,39.1,26.0,30.25,SSW,210,1.0,5.0,59,0.00,CLR,,0.00,WeatherDisplay:10.37,2013-12-01 05:40:00,
2013-12-01 00:55:00,39.4,26.2,30.25,SSW,210,1.0,5.0,59,0.00,CLR,,0.00,WeatherDisplay:10.37,2013-12-01 05:55:00,
2013-12-01 01:25:00,40.4,26.8,30.24,SSW,210,1.0,7.0,58,0.00,CLR,,0.00,WeatherDisplay:10.37,2013-12-01 06:25:00,
2013-12-01 01:40:00,40.9,26.8,30.23,SSW,210,2.0,8.0,57,0.00,CLR,,0.00,WeatherDisplay:10.37,2013-12-01 06:40:00,
2013-12-01 01:55:00,41.2,27.1,30.23,SW,232,2.0,9.0,57,0.00,CLR,,0.00,WeatherDisplay:10.37,2013-12-01 06:55:00,
2013-12-01 02:25:00,41.3,27.2,30.22,SW,232,1.0,9.0,57,0.00,CLR,,0.00,WeatherDisplay:10.37,2013-12-01 07:25:00,
2013-12-01 02:40:00,41.4,27.7,30.21,SW,232,1.0,6.0,58,0.00,CLR,,0.00,WeatherDisplay:10.37,2013-12-01 07:40:00,
2013-12-01 02:55:00,41.6,27.9,30.21,SW,232,1.0,7.0,58,0.00,CLR,,0.00,WeatherDisplay:10.37,2013-12-01 07:55:00,
2013-12-01 03:25:00,41.9,28.2,30.21,SW,232,2.0,7.0,58,0.00,CLR,,0.00,WeatherDisplay:10.37,2013-12-01 08:25:00,
2013-12-01 03:40:00,41.9,28.2,30.20,SW,232,1.0,7.0,58,0.00,CLR,,0.00,WeatherDisplay:10.37,2013-12-01 08:40:00,
2013-12-01 03:55:00,42.1,28.4,30.21,SSW,210,1.0,6.0,58,0.00,CLR,,0.00,WeatherDisplay:10.37,2013-12-01 08:55:00,
2013-12-01 04:25:00,42.0,28.3,30.20,SSW,210,1.0,6.0,58,0.00,CLR,,0.00,WeatherDisplay:10.37,2013-12-01 09:25:00,
2013-12-01 04:40:00,41.9,28.6,30.20,SSW,210,1.0,7.0,59,0.00,CLR,,0.00,WeatherDisplay:10.37,2013-12-01 09:40:00,
2013-12-01 04:55:00,41.9,28.6,30.20,SSW,210,1.0,7.0,59,0.00,CLR,,0.00,WeatherDisplay:10.37,2013-12-01 09:55:00,
2013-12-01 05:25:00,41.7,28.8,30.19,SSW,210,1.0,5.0,60,0.00,CLR,,0.00,WeatherDisplay:10.37,2013-12-01 10:25:00,
2013-12-01 05:40:00,41.9,29.0,30.19,SSW,210,1.0,5.0,60,0.00,CLR,,0.00,WeatherDisplay:10.37,2013-12-01 10:40:00,
2013-12-01 05:55:00,41.9,29.0,30.19,SSW,210,1.0,6.0,60,0.00,CLR,,0.00,WeatherDisplay:10.37,2013-12-01 10:55:00,
2013-12-01 06:25:00,42.2,29.7,30.19,SSW,210,1.0,6.0,61,0.00,CLR,,0.00,WeatherDisplay:10.37,2013-12-01 11:25:00,
2013-12-01 06:40:00,42.4,29.5,30.19,SSW,210,1.0,6.0,60,0.00,CLR,,0.00,WeatherDisplay:10.37,2013-12-01 11:40:00,
2013-12-01 06:55:00,42.8,29.9,30.20,SSW,210,1.0,6.0,60,0.00,CLR,,0.00,WeatherDisplay:10.37,2013-12-01 11:55:00,
2013-12-01 09:50:00,43.5,30.1,30.19,SW,224,27.0,27.0,59,0.00,-RA,,0.00,WeatherDisplay:10.37,2013-12-01 14:50:00,
2013-12-01 09:51:00,43.5,30.1,30.19,SW,224,27.0,27.0,59,0.00,-RA,,0.00,WeatherDisplay:10.37,2013-12-01 14:51:00,
2013-12-01 09:53:00,43.5,30.1,30.19,SW,224,6.0,6.0,59,0.00,-RA,,0.00,WeatherDisplay:10.37,2013-12-01 14:53:00,
2013-12-01 09:57:00,43.6,30.2,30.19,SW,227,5.8,5.8,59,0.00,-RA,,0.00,WeatherDisplay:10.37,2013-12-01 14:57:00,
2013-12-01 10:02:00,43.6,30.2,30.19,SW,228,6.0,6.0,59,0.00,OVC,,0.00,WeatherDisplay:10.37,2013-12-01 15:02:00,
2013-12-01 10:07:00,43.7,30.3,30.19,SW,228,5.0,5.0,59,0.00,OVC,,0.00,WeatherDisplay:10.37,2013-12-01 15:07:00,
2013-12-01 10:12:00,43.8,30.4,30.19,SW,229,3.5,3.5,59,0.00,OVC,,0.00,WeatherDisplay:10.37,2013-12-01 15:12:00,
2013-12-01 10:17:00,43.8,30.4,30.19,SW,230,4.0,4.0,59,0.00,OVC,,0.00,WeatherDisplay:10.37,2013-12-01 15:17:00,
2013-12-01 10:22:00,44.0,30.6,30.19,SW,231,3.5,3.5,59,0.00,OVC,,0.00,WeatherDisplay:10.37,2013-12-01 15:22:00,
2013-12-01 10:27:00,44.1,30.7,30.19,SW,231,3.5,0.0,59,0.00,OVC,,0.00,WeatherDisplay:10.37,2013-12-01 15:27:00,
2013-12-01 10:32:00,44.1,30.3,30.19,SW,230,3.0,3.0,58,0.00,OVC,,0.00,WeatherDisplay:10.37,2013-12-01 15:32:00,
2013-12-01 10:37:00,44.2,30.3,30.19,SW,229,6.0,6.0,58,0.00,OVC,,0.00,WeatherDisplay:10.37,2013-12-01 15:37:00,
2013-12-01 10:42:00,44.3,30.4,30.19,SSW,205,4.0,4.0,58,0.00,OVC,,0.00,WeatherDisplay:10.37,2013-12-01 15:42:00,
2013-12-01 10:47:00,44.5,30.6,30.18,SSW,210,4.0,4.0,58,0.00,OVC,,0.00,WeatherDisplay:10.37,2013-12-01 15:47:00,
2013-12-01 10:52:00,44.6,30.7,30.18,SSW,212,3.5,0.0,58,0.00,OVC,,0.00,WeatherDisplay:10.37,2013-12-01 15:52:00,
2013-12-01 10:57:00,44.7,30.8,30.18,SW,222,6.0,6.0,58,0.00,OVC,,0.00,WeatherDisplay:10.37,2013-12-01 15:57:00,
2013-12-01 11:02:00,44.8,30.9,30.18,WSW,244,4.6,4.6,58,0.00,OVC,,0.00,WeatherDisplay:10.37,2013-12-01 16:02:00,
2013-12-01 11:07:00,45.0,31.1,30.18,WSW,243,2.3,2.3,58,0.00,OVC,,0.00,WeatherDisplay:10.37,2013-12-01 16:07:00,
2013-12-01 11:12:00,45.1,31.2,30.18,SW,232,5.0,5.0,58,0.00,OVC,,0.00,WeatherDisplay:10.37,2013-12-01 16:12:00,
2013-12-01 11:17:00,45.2,31.3,30.18,SW,221,3.5,3.5,58,0.00,OVC,,0.00,WeatherDisplay:10.37,2013-12-01 16:17:00,
2013-12-01 11:22:00,45.5,31.1,30.18,SW,222,3.5,3.5,57,0.00,OVC,,0.00,WeatherDisplay:10.37,2013-12-01 16:22:00,
2013-12-01 11:27:00,45.6,31.2,30.17,SW,223,5.0,5.0,57,0.00,OVC,,0.00,WeatherDisplay:10.37,2013-12-01 16:27:00,
2013-12-01 11:32:00,45.8,31.4,30.17,SW,224,5.0,5.0,57,0.00,OVC,,0.00,WeatherDisplay:10.37,2013-12-01 16:32:00,
2013-12-01 11:37:00,45.9,31.5,30.17,SW,227,8.1,8.1,57,0.00,OVC,,0.00,WeatherDisplay:10.37,2013-12-01 16:37:00,
2013-12-01 11:42:00,46.0,31.6,30.16,SW,228,3.5,3.5,57,0.00,OVC,,0.00,WeatherDisplay:10.37,2013-12-01 16:42:00,
2013-12-01 11:47:00,46.3,31.9,30.16,SW,226,7.0,7.0,57,0.00,OVC,,0.00,WeatherDisplay:10.37,2013-12-01 16:47:00,
2013-12-01 11:52:00,46.5,32.1,30.16,SW,228,6.0,6.0,57,0.00,OVC,,0.00,WeatherDisplay:10.37,2013-12-01 16:52:00,
2013-12-01 11:57:00,46.7,31.8,30.15,SW,232,8.1,8.1,56,0.00,OVC,,0.00,WeatherDisplay:10.37,2013-12-01 16:57:00,
2013-12-01 12:02:00,46.8,31.9,30.15,SW,226,6.9,6.9,56,0.00,OVC,,0.00,WeatherDisplay:10.37,2013-12-01 17:02:00,
2013-12-01 12:07:00,47.0,32.1,30.15,SW,233,6.0,6.0,56,0.00,OVC,,0.00,WeatherDisplay:10.37,2013-12-01 17:07:00,
2013-12-01 12:12:00,47.2,32.3,30.15,SW,220,4.0,4.0,56,0.00,OVC,,0.00,WeatherDisplay:10.37,2013-12-01 17:12:00,
2013-12-01 12:17:00,47.4,32.0,30.14,SW,233,9.0,9.0,55,0.00,OVC,,0.00,WeatherDisplay:10.37,2013-12-01 17:17:00,
2013-12-01 12:22:00,47.5,32.1,30.14,SW,232,3.5,3.5,55,0.00,OVC,,0.00,WeatherDisplay:10.37,2013-12-01 17:22:00,
2013-12-01 12:27:00,47.7,32.3,30.14,SW,235,8.1,8.1,55,0.00,OVC,,0.00,WeatherDisplay:10.37,2013-12-01 17:27:00,
2013-12-01 12:32:00,47.9,32.0,30.14,SW,228,6.0,6.0,54,0.00,OVC,,0.00,WeatherDisplay:10.37,2013-12-01 17:32:00,
2013-12-01 12:37:00,48.0,32.6,30.14,SW,228,5.0,5.0,55,0.00,OVC,,0.00,WeatherDisplay:10.37,2013-12-01 17:37:00,
2013-12-01 12:42:00,48.2,32.3,30.14,WSW,251,8.0,8.0,54,0.00,OVC,,0.00,WeatherDisplay:10.37,2013-12-01 17:42:00,
2013-12-01 12:47:00,48.2,31.9,30.13,WSW,237,9.0,9.0,53,0.00,OVC,,0.00,WeatherDisplay:10.37,2013-12-01 17:47:00,
2013-12-01 12:52:00,48.3,31.9,30.13,WSW,253,9.2,9.2,53,0.00,OVC,,0.00,WeatherDisplay:10.37,2013-12-01 17:52:00,
2013-12-01 12:57:00,48.4,32.0,30.13,SW,230,8.0,8.0,53,0.00,OVC,,0.00,WeatherDisplay:10.37,2013-12-01 17:57:00,
2013-12-01 13:02:00,48.4,32.5,30.12,SW,236,5.0,5.0,54,0.00,OVC,,0.00,WeatherDisplay:10.37,2013-12-01 18:02:00,
2013-12-01 13:07:00,48.3,32.4,30.12,SW,225,7.0,7.0,54,0.00,OVC,,0.00,WeatherDisplay:10.37,2013-12-01 18:07:00,
2013-12-01 13:12:00,48.4,32.5,30.12,SW,230,11.5,11.5,54,0.00,OVC,,0.00,WeatherDisplay:10.37,2013-12-01 18:12:00,
2013-12-01 13:17:00,48.5,32.6,30.11,SW,231,9.0,9.0,54,0.00,OVC,,0.00,WeatherDisplay:10.37,2013-12-01 18:17:00,
2013-12-01 13:22:00,48.7,32.8,30.11,SW,230,8.1,8.1,54,0.00,OVC,,0.00,WeatherDisplay:10.37,2013-12-01 18:22:00,
2013-12-01 13:27:00,48.8,32.9,30.11,WSW,240,5.0,5.0,54,0.00,OVC,,0.00,WeatherDisplay:10.37,2013-12-01 18:27:00,
2013-12-01 13:32:00,48.8,32.9,30.11,SW,226,8.0,8.0,54,0.00,OVC,,0.00,WeatherDisplay:10.37,2013-12-01 18:32:00,
2013-12-01 13:37:00,48.8,32.9,30.11,SW,234,9.2,9.2,54,0.00,OVC,,0.00,WeatherDisplay:10.37,2013-12-01 18:37:00,
2013-12-01 13:42:00,48.7,32.8,30.10,WSW,245,4.6,4.6,54,0.00,OVC,,0.00,WeatherDisplay:10.37,2013-12-01 18:42:00,
2013-12-01 13:47:00,48.8,32.9,30.10,SW,235,8.1,8.1,54,0.00,OVC,,0.00,WeatherDisplay:10.37,2013-12-01 18:47:00,
2013-12-01 13:52:00,48.8,32.9,30.10,SW,234,11.0,11.0,54,0.00,OVC,,0.00,WeatherDisplay:10.37,2013-12-01 18:52:00,
2013-12-01 13:57:00,48.8,33.3,30.10,SW,232,9.2,9.2,55,0.00,OVC,,0.00,WeatherDisplay:10.37,2013-12-01 18:57:00,
2013-12-01 14:02:00,48.8,33.3,30.09,WSW,237,6.0,6.0,55,0.00,OVC,,0.00,WeatherDisplay:10.37,2013-12-01 19:02:00,
2013-12-01 14:07:00,49.0,33.5,30.09,West,268,4.0,4.0,55,0.00,OVC,,0.00,WeatherDisplay:10.37,2013-12-01 19:07:00,
2013-12-01 14:12:00,49.1,33.6,30.09,SW,235,4.0,4.0,55,0.00,OVC,,0.00,WeatherDisplay:10.37,2013-12-01 19:12:00,
2013-12-01 14:17:00,49.1,33.6,30.09,SW,232,6.0,6.0,55,0.00,OVC,,0.00,WeatherDisplay:10.37,2013-12-01 19:17:00,
2013-12-01 14:22:00,49.1,33.6,30.09,SW,232,3.5,3.5,55,0.00,OVC,,0.00,WeatherDisplay:10.37,2013-12-01 19:22:00,
2013-12-01 14:27:00,49.1,33.6,30.09,WSW,253,9.2,9.2,55,0.00,OVC,,0.00,WeatherDisplay:10.37,2013-12-01 19:27:00,
2013-12-01 14:32:00,49.2,33.7,30.09,SW,234,6.9,6.9,55,0.00,OVC,,0.00,WeatherDisplay:10.37,2013-12-01 19:32:00,
2013-12-01 14:37:00,49.1,34.1,30.09,WSW,239,4.0,4.0,56,0.00,OVC,,0.00,WeatherDisplay:10.37,2013-12-01 19:37:00,
2013-12-01 14:38:00,49.1,34.1,30.09,WSW,238,3.5,3.5,56,0.00,OVC,,0.00,WeatherDisplay:10.37,2013-12-01 19:38:00,
2013-12-01 14:43:00,49.2,34.2,30.08,SW,233,4.0,4.0,56,0.00,OVC,,0.00,WeatherDisplay:10.37,2013-12-01 19:43:00,
2013-12-01 14:48:00,49.1,34.1,30.08,SW,234,8.0,8.0,56,0.00,OVC,,0.00,WeatherDisplay:10.37,2013-12-01 19:48:00,
2013-12-01 14:53:00,49.0,34.0,30.08,WSW,243,8.0,8.0,56,0.00,OVC,,0.00,WeatherDisplay:10.37,2013-12-01 19:53:00,
2013-12-01 14:58:00,48.8,33.8,30.08,SW,230,6.9,6.9,56,0.00,OVC,,0.00,WeatherDisplay:10.37,2013-12-01 19:58:00,
2013-12-01 15:03:00,48.8,34.2,30.08,WSW,243,4.0,4.0,57,0.00,OVC,,0.00,WeatherDisplay:10.37,2013-12-01 20:03:00,
2013-12-01 15:08:00,48.7,34.1,30.08,WSW,237,10.0,10.0,57,0.00,OVC,,0.00,WeatherDisplay:10.37,2013-12-01 20:08:00,
2013-12-01 15:13:00,48.7,34.1,30.08,WSW,237,9.0,9.0,57,0.00,OVC,,0.00,WeatherDisplay:10.37,2013-12-01 20:13:00,
2013-12-01 15:18:00,48.8,34.7,30.08,WSW,239,2.3,2.3,58,0.00,OVC,,0.00,WeatherDisplay:10.37,2013-12-01 20:18:00,
2013-12-01 15:23:00,48.8,34.2,30.07,WSW,237,5.0,5.0,57,0.00,OVC,,0.00,WeatherDisplay:10.37,2013-12-01 20:23:00,
2013-12-01 15:28:00,49.0,34.9,30.07,WSW,238,5.0,5.0,58,0.00,OVC,,0.00,WeatherDisplay:10.37,2013-12-01 20:28:00,
2013-12-01 15:33:00,49.0,34.4,30.07,SW,235,2.3,2.3,57,0.00,OVC,,0.00,WeatherDisplay:10.37,2013-12-01 20:33:00,
2013-12-01 15:38:00,48.9,34.3,30.07,SW,232,4.0,4.0,57,0.00,OVC,,0.00,WeatherDisplay:10.37,2013-12-01 20:38:00,
2013-12-01 15:43:00,48.8,34.2,30.07,SW,226,4.0,4.0,57,0.00,OVC,,0.00,WeatherDisplay:10.37,2013-12-01 20:43:00,
2013-12-01 15:48:00,48.7,34.1,30.07,SW,226,7.0,7.0,57,0.00,OVC,,0.00,WeatherDisplay:10.37,2013-12-01 20:48:00,
2013-12-01 15:53:00,48.6,34.0,30.07,WSW,246,6.0,6.0,57,0.00,OVC,,0.00,WeatherDisplay:10.37,2013-12-01 20:53:00,
2013-12-01 15:58:00,48.6,34.5,30.07,WSW,243,4.0,4.0,58,0.00,OVC,,0.00,WeatherDisplay:10.37,2013-12-01 20:58:00,
2013-12-01 16:03:00,48.6,34.5,30.07,SW,234,5.0,5.0,58,0.00,OVC,,0.00,WeatherDisplay:10.37,2013-12-01 21:03:00,
2013-12-01 16:08:00,48.6,34.5,30.07,SW,233,5.0,5.0,58,0.00,OVC,,0.00,WeatherDisplay:10.37,2013-12-01 21:08:00,
2013-12-01 16:13:00,48.4,33.9,30.07,SW,230,8.1,8.1,57,0.00,OVC,,0.00,WeatherDisplay:10.37,2013-12-01 21:13:00,
2013-12-01 16:18:00,48.3,34.2,30.07,SW,225,5.0,5.0,58,0.00,OVC,,0.00,WeatherDisplay:10.37,2013-12-01 21:18:00,
2013-12-01 16:23:00,48.2,34.1,30.07,SW,224,3.5,3.5,58,0.00,OVC,,0.00,WeatherDisplay:10.37,2013-12-01 21:23:00,
2013-12-01 16:28:00,48.2,34.1,30.07,SW,227,5.8,5.8,58,0.00,OVC,,0.00,WeatherDisplay:10.37,2013-12-01 21:28:00,
2013-12-01 16:33:00,48.1,34.0,30.07,SW,230,5.0,5.0,58,0.00,OVC,,0.00,WeatherDisplay:10.37,2013-12-01 21:33:00,
2013-12-01 16:38:00,48.0,33.9,30.07,SW,231,4.0,4.0,58,0.00,OVC,,0.00,WeatherDisplay:10.37,2013-12-01 21:38:00,
2013-12-01 16:43:00,47.9,34.3,30.07,SW,230,4.6,4.6,59,0.00,OVC,,0.00,WeatherDisplay:10.37,2013-12-01 21:43:00,
2013-12-01 16:48:00,47.8,34.2,30.07,SW,230,1.2,0.0,59,0.00,OVC,,0.00,WeatherDisplay:10.37,2013-12-01 21:48:00,
2013-12-01 16:53:00,47.7,34.1,30.07,SW,230,2.3,2.3,59,0.00,OVC,,0.00,WeatherDisplay:10.37,2013-12-01 21:53:00,
2013-12-01 16:58:00,47.6,34.4,30.07,SW,229,4.0,4.0,60,0.00,OVC,,0.00,WeatherDisplay:10.37,2013-12-01 21:58:00,
2013-12-01 17:03:00,47.5,34.3,30.06,SW,228,3.5,3.5,60,0.00,OVC,,0.00,WeatherDisplay:10.37,2013-12-01 22:03:00,
2013-12-01 17:08:00,47.4,34.2,30.06,SW,228,4.0,4.0,60,0.00,OVC,,0.00,WeatherDisplay:10.37,2013-12-01 22:08:00,
2013-12-01 17:13:00,47.3,34.1,30.06,SW,228,3.5,3.5,60,0.00,OVC,,0.00,WeatherDisplay:10.37,2013-12-01 22:13:00,
2013-12-01 17:18:00,47.2,34.4,30.06,SW,228,0.0,0.0,61,0.00,OVC,,0.00,WeatherDisplay:10.37,2013-12-01 22:18:00,
2013-12-01 17:23:00,47.0,34.2,30.06,SW,228,1.2,1.2,61,0.00,OVC,,0.00,WeatherDisplay:10.37,2013-12-01 22:23:00,
2013-12-01 17:28:00,46.8,34.0,30.06,SW,228,1.2,0.0,61,0.00,OVC,,0.00,WeatherDisplay:10.37,2013-12-01 22:28:00,
2013-12-01 17:33:00,46.6,34.3,30.06,SW,228,0.0,0.0,62,0.00,OVC,,0.00,WeatherDisplay:10.37,2013-12-01 22:33:00,
2013-12-01 17:38:00,46.4,34.1,30.06,SW,228,0.0,0.0,62,0.00,OVC,,0.00,WeatherDisplay:10.37,2013-12-01 22:38:00,
2013-12-01 17:43:00,46.2,33.9,30.06,SW,228,2.3,2.3,62,0.00,OVC,,0.00,WeatherDisplay:10.37,2013-12-01 22:43:00,
2013-12-01 17:48:00,46.1,33.8,30.06,SW,228,3.5,3.5,62,0.00,OVC,,0.00,WeatherDisplay:10.37,2013-12-01 22:48:00,
2013-12-01 17:53:00,46.0,33.7,30.06,SW,228,1.0,0.0,62,0.00,OVC,,0.00,WeatherDisplay:10.37,2013-12-01 22:53:00,
2013-12-01 17:58:00,45.9,34.0,30.05,SW,228,2.0,2.0,63,0.00,OVC,,0.00,WeatherDisplay:10.37,2013-12-01 22:58:00,
2013-12-01 18:03:00,45.7,33.8,30.06,SW,228,1.2,1.2,63,0.00,OVC,,0.00,WeatherDisplay:10.37,2013-12-01 23:03:00,
2013-12-01 18:08:00,45.6,33.7,30.06,SW,228,2.3,2.3,63,0.00,OVC,,0.00,WeatherDisplay:10.37,2013-12-01 23:08:00,
2013-12-01 18:13:00,45.6,33.3,30.06,SW,228,3.5,3.5,62,0.00,OVC,,0.00,WeatherDisplay:10.37,2013-12-01 23:13:00,
2013-12-01 18:18:00,45.5,33.2,30.05,SW,228,2.0,2.0,62,0.00,OVC,,0.00,WeatherDisplay:10.37,2013-12-01 23:18:00,
2013-12-01 18:23:00,45.5,33.2,30.06,SW,228,2.0,2.0,62,0.00,OVC,,0.00,WeatherDisplay:10.37,2013-12-01 23:23:00,
2013-12-01 18:28:00,45.4,33.1,30.06,SW,228,3.5,3.5,62,0.00,OVC,,0.00,WeatherDisplay:10.37,2013-12-01 23:28:00,
2013-12-01 18:33:00,45.4,33.1,30.05,SW,228,1.2,1.2,62,0.00,OVC,,0.00,WeatherDisplay:10.37,2013-12-01 23:33:00,
2013-12-01 18:38:00,45.2,32.9,30.05,SW,228,2.3,2.3,62,0.00,OVC,,0.00,WeatherDisplay:10.37,2013-12-01 23:38:00,
2013-12-01 18:43:00,45.2,32.9,30.05,SW,228,3.0,3.0,62,0.00,OVC,,0.00,WeatherDisplay:10.37,2013-12-01 23:43:00,
2013-12-01 18:48:00,45.0,32.8,30.05,SW,228,3.5,3.5,62,0.00,OVC,,0.00,WeatherDisplay:10.37,2013-12-01 23:48:00,
2013-12-01 18:53:00,45.0,32.8,30.05,SW,228,3.5,3.5,62,0.00,OVC,,0.00,WeatherDisplay:10.37,2013-12-01 23:53:00,
2013-12-01 18:58:00,44.7,32.9,30.06,SW,228,3.0,3.0,63,0.00,OVC,,0.00,WeatherDisplay:10.37,2013-12-01 23:58:00,
2013-12-01 19:03:00,44.6,34.3,30.05,SW,228,5.0,5.0,67,0.00,BKN,,0.00,WeatherDisplay:10.37,2013-12-02 00:03:00,
2013-12-01 19:08:00,44.5,32.7,30.05,SW,228,3.5,3.5,63,0.00,BKN,,0.00,WeatherDisplay:10.37,2013-12-02 00:08:00,
2013-12-01 19:13:00,44.5,32.7,30.05,SW,227,2.3,2.3,63,0.00,BKN,,0.00,WeatherDisplay:10.37,2013-12-02 00:13:00,
2013-12-01 19:18:00,44.4,32.6,30.05,SW,227,3.5,3.5,63,0.00,BKN,,0.00,WeatherDisplay:10.37,2013-12-02 00:18:00,
2013-12-01 19:23:00,44.4,32.6,30.05,SW,227,3.0,3.0,63,0.00,BKN,,0.00,WeatherDisplay:10.37,2013-12-02 00:23:00,
2013-12-01 19:28:00,44.4,32.6,30.05,SW,227,2.3,0.0,63,0.00,BKN,,0.00,WeatherDisplay:10.37,2013-12-02 00:28:00,
2013-12-01 19:33:00,44.4,32.6,30.05,SW,226,2.3,2.3,63,0.00,BKN,,0.00,WeatherDisplay:10.37,2013-12-02 00:33:00,
2013-12-01 19:38:00,44.4,32.6,30.05,SW,226,2.0,2.0,63,0.00,BKN,,0.00,WeatherDisplay:10.37,2013-12-02 00:38:00,
2013-12-01 19:43:00,44.3,32.9,30.05,SW,227,2.0,2.0,64,0.00,BKN,,0.00,WeatherDisplay:10.37,2013-12-02 00:43:00,
2013-12-01 19:48:00,44.3,32.9,30.05,SW,227,1.2,0.0,64,0.00,BKN,,0.00,WeatherDisplay:10.37,2013-12-02 00:48:00,
2013-12-01 19:53:00,44.4,33.0,30.05,SW,227,2.0,2.0,64,0.00,BKN,,0.00,WeatherDisplay:10.37,2013-12-02 00:53:00,
2013-12-01 19:58:00,44.3,32.9,30.05,SW,227,0.0,0.0,64,0.00,BKN,,0.00,WeatherDisplay:10.37,2013-12-02 00:58:00,
2013-12-01 20:03:00,44.3,32.9,30.05,SW,226,2.3,2.3,64,0.00,OVC,,0.00,WeatherDisplay:10.37,2013-12-02 01:03:00,
2013-12-01 20:08:00,44.3,32.9,30.05,SW,227,2.0,2.0,64,0.00,OVC,,0.00,WeatherDisplay:10.37,2013-12-02 01:08:00,
2013-12-01 20:13:00,44.3,32.9,30.05,SW,227,0.0,0.0,64,0.00,OVC,,0.00,WeatherDisplay:10.37,2013-12-02 01:13:00,
2013-12-01 20:18:00,44.4,33.0,30.04,SW,227,2.3,2.3,64,0.00,OVC,,0.00,WeatherDisplay:10.37,2013-12-02 01:18:00,
2013-12-01 20:23:00,44.3,32.9,30.04,SW,226,1.2,1.2,64,0.00,OVC,,0.00,WeatherDisplay:10.37,2013-12-02 01:23:00,
2013-12-01 20:28:00,44.3,32.9,30.04,SW,226,0.0,0.0,64,0.00,OVC,,0.00,WeatherDisplay:10.37,2013-12-02 01:28:00,
2013-12-01 20:33:00,44.3,32.9,30.04,SW,227,0.0,0.0,64,0.00,OVC,,0.00,WeatherDisplay:10.37,2013-12-02 01:33:00,
2013-12-01 20:38:00,44.3,32.9,30.04,SW,227,1.2,0.0,64,0.00,OVC,,0.00,WeatherDisplay:10.37,2013-12-02 01:38:00,
2013-12-01 20:43:00,44.3,32.9,30.04,SW,227,3.0,3.0,64,0.00,OVC,,0.00,WeatherDisplay:10.37,2013-12-02 01:43:00,
2013-12-01 20:48:00,44.2,32.8,30.04,SW,227,2.3,0.0,64,0.00,OVC,,0.00,WeatherDisplay:10.37,2013-12-02 01:48:00,
2013-12-01 20:53:00,44.3,32.9,30.04,SW,226,2.3,2.3,64,0.00,OVC,,0.00,WeatherDisplay:10.37,2013-12-02 01:53:00,
2013-12-01 20:58:00,44.2,32.8,30.04,SW,226,0.0,0.0,64,0.00,OVC,,0.00,WeatherDisplay:10.37,2013-12-02 01:58:00,
2013-12-01 21:03:00,44.2,32.8,30.04,SW,227,2.3,2.3,64,0.00,OVC,,0.00,WeatherDisplay:10.37,2013-12-02 02:03:00,
2013-12-01 21:08:00,44.2,32.8,30.04,SW,227,1.0,1.0,64,0.00,OVC,,0.00,WeatherDisplay:10.37,2013-12-02 02:08:00,
2013-12-01 21:13:00,44.2,32.8,30.04,SW,227,0.0,0.0,64,0.00,OVC,,0.00,WeatherDisplay:10.37,2013-12-02 02:13:00,
2013-12-01 21:18:00,44.2,32.8,30.04,SW,226,2.3,0.0,64,0.00,OVC,,0.00,WeatherDisplay:10.37,2013-12-02 02:18:00,
2013-12-01 21:23:00,44.2,32.8,30.04,SW,227,0.0,0.0,64,0.00,OVC,,0.00,WeatherDisplay:10.37,2013-12-02 02:23:00,
2013-12-01 21:28:00,44.2,32.8,30.04,SW,227,1.2,1.2,64,0.00,OVC,,0.00,WeatherDisplay:10.37,2013-12-02 02:28:00,
2013-12-01 21:33:00,44.2,32.8,30.04,SW,226,1.2,1.2,64,0.00,OVC,,0.00,WeatherDisplay:10.37,2013-12-02 02:33:00,
2013-12-01 21:38:00,44.2,32.8,30.04,SW,226,0.0,0.0,64,0.00,OVC,,0.00,WeatherDisplay:10.37,2013-12-02 02:38:00,
2013-12-01 21:43:00,44.2,32.8,30.04,SW,227,0.0,0.0,64,0.00,OVC,,0.00,WeatherDisplay:10.37,2013-12-02 02:43:00,
2013-12-01 21:48:00,44.2,32.8,30.04,SW,227,2.3,0.0,64,0.00,OVC,,0.00,WeatherDisplay:10.37,2013-12-02 02:48:00,
2013-12-01 21:53:00,44.2,32.8,30.04,SW,227,0.0,0.0,64,0.00,OVC,,0.00,WeatherDisplay:10.37,2013-12-02 02:53:00,
2013-12-01 21:58:00,44.1,33.1,30.04,SW,226,0.0,0.0,65,0.00,OVC,,0.00,WeatherDisplay:10.37,2013-12-02 02:58:00,
2013-12-01 22:03:00,44.1,33.1,30.03,SW,227,0.0,0.0,65,0.00,OVC,,0.00,WeatherDisplay:10.37,2013-12-02 03:03:00,
2013-12-01 22:08:00,44.0,33.0,30.03,SW,227,0.0,0.0,65,0.00,OVC,,0.00,WeatherDisplay:10.37,2013-12-02 03:08:00,
2013-12-01 22:13:00,44.0,33.0,30.03,SW,226,1.2,1.2,65,0.00,OVC,,0.00,WeatherDisplay:10.37,2013-12-02 03:13:00,
2013-12-01 22:18:00,44.0,33.0,30.03,SW,226,1.0,1.0,65,0.00,OVC,,0.00,WeatherDisplay:10.37,2013-12-02 03:18:00,
2013-12-01 22:23:00,44.0,33.0,30.03,SW,227,0.0,0.0,65,0.00,OVC,,0.00,WeatherDisplay:10.37,2013-12-02 03:23:00,
2013-12-01 22:28:00,44.0,33.0,30.03,SW,227,0.0,0.0,65,0.00,OVC,,0.00,WeatherDisplay:10.37,2013-12-02 03:28:00,
2013-12-01 22:33:00,44.1,33.1,30.03,SW,227,2.3,2.3,65,0.00,OVC,,0.00,WeatherDisplay:10.37,2013-12-02 03:33:00,
2013-12-01 22:38:00,44.2,33.2,30.03,SW,227,2.3,2.3,65,0.00,OVC,,0.00,WeatherDisplay:10.37,2013-12-02 03:38:00,
2013-12-01 22:43:00,44.2,33.2,30.03,SW,226,2.3,2.3,65,0.00,OVC,,0.00,WeatherDisplay:10.37,2013-12-02 03:43:00,
2013-12-01 22:48:00,44.3,33.3,30.02,SW,227,2.3,0.0,65,0.00,OVC,,0.00,WeatherDisplay:10.37,2013-12-02 03:48:00,
2013-12-01 22:53:00,44.4,33.4,30.02,SW,226,0.0,0.0,65,0.00,OVC,,0.00,WeatherDisplay:10.37,2013-12-02 03:53:00,
2013-12-01 22:58:00,44.4,33.4,30.02,SW,227,2.3,2.3,65,0.00,OVC,,0.00,WeatherDisplay:10.37,2013-12-02 03:58:00,
2013-12-01 23:03:00,44.4,33.4,30.02,SW,227,3.5,3.5,65,0.00,OVC,,0.00,WeatherDisplay:10.37,2013-12-02 04:03:00,
2013-12-01 23:08:00,44.5,33.5,30.02,SW,226,3.5,3.5,65,0.00,OVC,,0.00,WeatherDisplay:10.37,2013-12-02 04:08:00,
2013-12-01 23:13:00,44.5,33.5,30.02,SW,226,3.0,3.0,65,0.00,OVC,,0.00,WeatherDisplay:10.37,2013-12-02 04:13:00,
2013-12-01 23:18:00,44.6,33.6,30.02,SW,227,2.3,0.0,65,0.00,OVC,,0.00,WeatherDisplay:10.37,2013-12-02 04:18:00,
2013-12-01 23:23:00,44.6,33.6,30.02,SW,226,2.3,0.0,65,0.00,OVC,,0.00,WeatherDisplay:10.37,2013-12-02 04:23:00,
2013-12-01 23:28:00,44.6,33.6,30.02,SW,226,3.0,3.0,65,0.00,OVC,,0.00,WeatherDisplay:10.37,2013-12-02 04:28:00,
2013-12-01 23:33:00,44.6,33.6,30.01,SW,227,0.0,0.0,65,0.00,OVC,,0.00,WeatherDisplay:10.37,2013-12-02 04:33:00,
2013-12-01 23:38:00,44.6,33.6,30.02,SW,226,2.0,2.0,65,0.00,OVC,,0.00,WeatherDisplay:10.37,2013-12-02 04:38:00,
2013-12-01 23:43:00,44.5,33.5,30.01,SW,226,0.0,0.0,65,0.00,OVC,,0.00,WeatherDisplay:10.37,2013-12-02 04:43:00,
2013-12-01 23:48:00,44.5,33.5,30.01,SW,226,2.0,2.0,65,0.00,OVC,,0.00,WeatherDisplay:10.37,2013-12-02 04:48:00,
2013-12-01 23:53:00,44.4,33.4,30.01,SW,227,0.0,0.0,65,0.00,OVC,,0.00,WeatherDisplay:10.37,2013-12-02 04:53:00,
2013-12-01 23:58:00,44.3,33.7,30.01,SW,226,0.0,0.0,66,0.00,OVC,,0.00,WeatherDisplay:10.37,2013-12-02 04:58:00,